Time;durP1;ratioP1;P1;durP2;ratioP2;P2;SDS_P1;SDS_P2;PMS_P1;PMS_P2;Temp;Humidity;BMP_temperature;BMP_pressure;BME280_temperature;BME280_humidity;BME280_pressure;Samples;Min_cycle;Max_cycle;Signal;HPM_P1;HPM_P2
2023/05/29 00:00:17;;;;;;;5.25;3.47;;;;;;;12.13;67.64;150339.13;5063310;28;20197;-74
2023/05/29 00:02:44;;;;;;;6.03;2.95;;;;;;;12.14;68.87;150340.41;5063099;28;20025;-74
2023/05/29 00:05:11;;;;;;;4.57;3.05;;;;;;;12.18;68.61;150350.69;5077652;28;20051;-74
2023/05/29 00:07:37;;;;;;;5.50;3.25;;;;;;;12.17;69.04;150348.09;5073418;28;20352;-74
2023/05/29 00:10:04;;;;;;;6.53;3.20;;;;;;;12.14;68.29;150341.72;5068286;28;20055;-73
2023/05/29 00:12:30;;;;;;;6.57;3.00;;;;;;;12.14;68.30;150341.72;5082570;28;20024;-73
2023/05/29 00:14:55;;;;;;;5.45;3.15;;;;;;;12.09;69.36;150328.88;5062239;28;20059;-73
2023/05/29 00:17:21;;;;;;;6.13;3.50;;;;;;;12.06;68.66;150322.44;5079030;28;20086;-73
2023/05/29 00:19:46;;;;;;;6.05;3.00;;;;;;;12.03;69.03;150313.47;5071954;28;20318;-74
2023/05/29 00:22:12;;;;;;;9.77;3.45;;;;;;;11.96;69.72;150295.50;5069417;28;20066;-76
2023/05/29 00:24:38;;;;;;;10.55;3.13;;;;;;;11.97;71.08;150299.34;5081446;28;20256;-76
2023/05/29 00:27:04;;;;;;;8.57;3.33;;;;;;;11.98;69.71;150300.63;5063146;28;20033;-75
2023/05/29 00:29:30;;;;;;;4.25;2.92;;;;;;;11.98;69.15;150301.88;5062022;28;20027;-74
2023/05/29 00:31:56;;;;;;;6.97;3.40;;;;;;;11.97;69.17;150299.34;5069533;28;20127;-75
2023/05/29 00:34:26;;;;;;;4.38;2.95;;;;;;;11.94;69.66;150290.34;5070505;28;20253;-75
2023/05/29 00:36:52;;;;;;;6.53;3.20;;;;;;;11.94;68.90;150290.34;5079416;28;20479;-74
2023/05/29 00:39:17;;;;;;;8.10;3.28;;;;;;;11.96;69.73;150296.78;5062729;28;20025;-73
2023/05/29 00:41:43;;;;;;;5.28;3.00;;;;;;;11.97;69.16;150298.03;5063179;28;20025;-76
2023/05/29 00:44:09;;;;;;;10.77;3.38;;;;;;;11.97;69.68;150298.03;5062882;28;20033;-76
2023/05/29 00:46:34;;;;;;;5.68;2.85;;;;;;;11.89;69.64;150280.00;5062691;28;20025;-76
2023/05/29 00:49:01;;;;;;;5.75;3.15;;;;;;;11.73;70.00;150238.97;5067353;28;20423;-76
2023/05/29 00:51:28;;;;;;;6.60;2.70;;;;;;;11.84;69.46;150265.91;5082879;28;20052;-76
2023/05/29 00:53:54;;;;;;;6.32;3.10;;;;;;;11.82;68.62;150260.78;5041807;28;20041;-77
2023/05/29 00:56:20;;;;;;;5.10;3.15;;;;;;;11.88;68.32;150276.16;5076016;28;20070;-76
2023/05/29 00:58:49;;;;;;;9.25;3.10;;;;;;;11.82;69.19;150260.78;5076292;28;20044;-75
2023/05/29 01:01:15;;;;;;;4.97;2.88;;;;;;;11.88;68.69;150277.44;5067140;28;20036;-78
2023/05/29 01:03:42;;;;;;;4.00;2.88;;;;;;;11.78;68.93;150250.50;5067008;28;20059;-76
2023/05/29 01:06:07;;;;;;;5.25;3.17;;;;;;;11.80;68.98;150256.94;5066862;28;20045;-77
2023/05/29 01:08:33;;;;;;;4.18;2.92;;;;;;;11.86;68.76;150271.06;5067124;28;20098;-77
2023/05/29 01:11:29;;;;;;;9.63;3.67;;;;;;;11.75;69.39;150244.09;5067204;28;20021;-76
2023/05/29 01:14:00;;;;;;;4.07;2.90;;;;;;;11.80;69.24;150256.94;5053201;28;20040;-74
2023/05/29 01:16:48;;;;;;;5.40;3.10;;;;;;;11.74;68.44;150242.81;5070315;28;20036;-74
2023/05/29 01:19:37;;;;;;;5.30;3.30;;;;;;;11.89;70.02;150278.75;5086538;28;20035;-72
2023/05/29 01:22:38;;;;;;;8.48;3.60;;;;;;;11.75;69.46;150245.34;5066182;28;20037;-73
2023/05/29 01:25:27;;;;;;;4.35;2.80;;;;;;;11.70;69.57;150231.22;5063043;28;20037;-75
2023/05/29 01:27:55;;;;;;;6.10;3.22;;;;;;;11.72;69.96;150236.38;5071575;28;20047;-73
2023/05/29 01:30:23;;;;;;;4.18;3.13;;;;;;;11.72;69.49;150236.38;5087384;28;20028;-75
2023/05/29 01:32:51;;;;;;;5.68;3.03;;;;;;;11.75;69.40;150244.09;5067188;28;20037;-75
2023/05/29 01:35:16;;;;;;;4.15;2.67;;;;;;;11.70;68.94;150231.22;5080680;28;20020;-76
2023/05/29 01:37:42;;;;;;;6.63;3.20;;;;;;;11.77;70.28;150247.94;5076444;28;20029;-77
2023/05/29 01:40:08;;;;;;;6.10;3.28;;;;;;;11.69;69.76;150228.69;5065973;28;20115;-76
2023/05/29 01:42:34;;;;;;;8.00;2.67;;;;;;;11.73;69.00;150240.22;5065888;28;20027;-74
2023/05/29 01:45:02;;;;;;;4.78;2.92;;;;;;;11.76;68.84;150246.66;5065762;28;20033;-75
2023/05/29 01:47:29;;;;;;;5.68;2.75;;;;;;;11.81;68.94;150259.47;5067790;28;20325;-74
2023/05/29 01:49:56;;;;;;;4.47;3.13;;;;;;;11.79;68.93;150253.09;5065740;28;20029;-74
2023/05/29 01:52:21;;;;;;;7.13;3.90;;;;;;;11.87;68.72;150274.91;5066411;28;20325;-75
2023/05/29 01:54:47;;;;;;;4.55;3.03;;;;;;;11.94;67.14;150290.34;5067754;28;20040;-75
2023/05/29 01:57:13;;;;;;;5.53;2.88;;;;;;;11.90;67.89;150281.34;5085727;28;20033;-77
2023/05/29 01:59:39;;;;;;;6.20;3.03;;;;;;;11.87;68.27;150273.59;5068231;28;20225;-76
2023/05/29 02:02:09;;;;;;;6.25;3.53;;;;;;;11.74;67.99;150241.50;5068748;28;20050;-76
2023/05/29 02:04:35;;;;;;;6.65;2.88;;;;;;;11.95;68.28;150292.91;5074087;28;20025;-77
2023/05/29 02:07:01;;;;;;;4.32;3.10;;;;;;;11.97;68.94;150298.03;5080721;28;20383;-74
2023/05/29 02:09:26;;;;;;;5.88;3.15;;;;;;;12.04;67.85;150317.31;5065280;28;20043;-76
2023/05/29 02:11:52;;;;;;;7.90;3.03;;;;;;;12.14;67.63;150341.72;5083280;28;20190;-76
2023/05/29 02:14:18;;;;;;;4.90;2.92;;;;;;;12.19;67.49;150353.25;5070847;28;20029;-74
2023/05/29 02:16:43;;;;;;;5.95;2.92;;;;;;;12.17;66.97;150349.41;5074995;28;20043;-74
2023/05/29 02:19:10;;;;;;;4.28;2.95;;;;;;;12.18;66.64;150351.94;5080328;28;20397;-74
2023/05/29 02:21:55;;;;;;;7.97;2.97;;;;;;;12.30;67.09;150380.19;5066892;28;20405;-74
2023/05/29 02:24:21;;;;;;;3.80;2.63;;;;;;;12.35;66.88;150394.34;5085178;28;20040;-73
2023/05/29 02:26:50;;;;;;;5.93;3.10;;;;;;;12.38;66.46;150402.03;5066558;28;20179;-74
2023/05/29 02:29:15;;;;;;;6.68;3.40;;;;;;;12.46;66.52;150421.31;5064882;28;20205;-74
2023/05/29 02:31:41;;;;;;;4.18;3.03;;;;;;;12.50;66.04;150430.28;5074043;28;20052;-74
2023/05/29 02:34:06;;;;;;;6.15;3.00;;;;;;;12.49;66.51;150429.00;5080793;28;20036;-74
2023/05/29 02:36:32;;;;;;;5.28;3.00;;;;;;;12.54;66.75;150440.56;5064811;28;20028;-74
2023/05/29 02:38:58;;;;;;;6.28;3.15;;;;;;;12.64;66.49;150464.97;5084748;28;20074;-75
2023/05/29 02:41:23;;;;;;;7.45;3.22;;;;;;;12.73;66.70;150488.13;5066780;28;20232;-74
2023/05/29 02:43:49;;;;;;;5.90;2.95;;;;;;;12.73;66.11;150488.13;5064834;28;20051;-74
2023/05/29 02:46:14;;;;;;;6.22;3.25;;;;;;;12.78;66.21;150500.94;5069787;28;20087;-74
2023/05/29 02:48:40;;;;;;;6.68;3.10;;;;;;;12.78;65.96;150500.94;5084036;28;20028;-75
2023/05/29 02:51:06;;;;;;;4.85;2.70;;;;;;;12.80;65.45;150506.09;5064438;28;20328;-75
2023/05/29 02:53:31;;;;;;;5.20;3.13;;;;;;;12.87;65.37;150524.06;5064404;28;20248;-75
2023/05/29 02:55:57;;;;;;;5.75;3.10;;;;;;;12.96;65.34;150545.91;5075910;28;20309;-74
2023/05/29 02:58:22;;;;;;;6.75;3.20;;;;;;;13.02;65.42;150560.03;5080234;28;20340;-73
2023/05/29 03:00:48;;;;;;;5.20;3.22;;;;;;;13.06;64.76;150571.59;5068112;28;20060;-75
2023/05/29 03:03:14;;;;;;;4.40;2.80;;;;;;;13.10;65.13;150580.63;5065661;28;20048;-74
2023/05/29 03:05:39;;;;;;;5.18;3.17;;;;;;;13.17;64.14;150597.28;5081674;28;20051;-77
2023/05/29 03:08:05;;;;;;;5.05;2.92;;;;;;;13.25;64.16;150619.19;5072117;28;20040;-77
2023/05/29 03:10:30;;;;;;;5.03;2.72;;;;;;;13.27;63.72;150624.28;5064169;28;20045;-76
2023/05/29 03:12:56;;;;;;;8.15;3.00;;;;;;;13.37;63.21;150648.75;5066896;28;20349;-75
2023/05/29 03:15:22;;;;;;;7.22;3.15;;;;;;;13.45;64.23;150668.03;5082983;28;20050;-75
2023/05/29 03:17:47;;;;;;;4.50;2.75;;;;;;;13.56;63.27;150696.31;5066241;28;20289;-75
2023/05/29 03:20:13;;;;;;;8.40;3.05;;;;;;;13.61;63.87;150707.84;5077069;28;20028;-72
2023/05/29 03:22:38;;;;;;;5.95;3.03;;;;;;;13.61;62.84;150709.16;5075631;28;20056;-72
2023/05/29 03:25:04;;;;;;;5.15;2.67;;;;;;;13.68;63.55;150724.59;5067375;28;20190;-71
2023/05/29 03:27:31;;;;;;;9.10;3.42;;;;;;;13.67;61.95;150723.31;5084481;28;20024;-74
2023/05/29 03:29:57;;;;;;;6.70;3.08;;;;;;;13.73;62.55;150738.72;5064754;28;20021;-73
2023/05/29 03:32:23;;;;;;;5.80;2.80;;;;;;;13.78;61.84;150750.28;5078344;28;20124;-73
2023/05/29 03:34:49;;;;;;;5.03;2.90;;;;;;;13.87;61.77;150772.19;5074058;28;20115;-73
2023/05/29 03:37:14;;;;;;;4.97;2.42;;;;;;;13.88;60.76;150776.03;5078986;28;20092;-72
2023/05/29 03:39:40;;;;;;;4.28;3.03;;;;;;;14.00;60.78;150804.31;5063806;28;20036;-75
2023/05/29 03:42:06;;;;;;;5.68;2.65;;;;;;;14.18;60.84;150850.59;5063714;28;20365;-74
2023/05/29 03:44:31;;;;;;;7.70;2.85;;;;;;;14.29;59.08;150878.91;5063759;28;20033;-74
2023/05/29 03:46:57;;;;;;;6.05;2.78;;;;;;;14.31;59.59;150884.03;5062479;28;20318;-76
2023/05/29 03:49:23;;;;;;;4.60;2.63;;;;;;;14.37;59.02;150898.16;5057561;28;20772;-75
2023/05/29 03:51:49;;;;;;;2.90;2.33;;;;;;;14.48;58.36;150925.19;5064678;28;20221;-75
2023/05/29 03:54:15;;;;;;;6.63;2.50;;;;;;;14.52;58.56;150934.19;5083662;28;20069;-76
2023/05/29 03:56:41;;;;;;;3.90;2.35;;;;;;;14.46;58.03;150920.03;5067219;28;20052;-75
2023/05/29 03:59:06;;;;;;;6.45;2.88;;;;;;;14.56;58.78;150944.47;5075645;28;20024;-75
2023/05/29 04:01:32;;;;;;;5.55;2.70;;;;;;;14.45;57.96;150917.44;5078245;28;20033;-75
2023/05/29 04:03:58;;;;;;;6.05;2.50;;;;;;;14.52;57.03;150935.44;5065752;28;20091;-75
2023/05/29 04:06:23;;;;;;;5.35;2.85;;;;;;;14.70;57.53;150980.53;5070568;28;20053;-75
2023/05/29 04:08:49;;;;;;;4.38;2.30;;;;;;;14.80;57.40;151006.25;5090162;28;20082;-75
2023/05/29 04:11:15;;;;;;;6.60;2.60;;;;;;;14.86;57.45;151019.13;5080582;28;20016;-74
2023/05/29 04:13:41;;;;;;;8.13;3.00;;;;;;;14.96;56.13;151046.19;5084569;28;20076;-74
2023/05/29 04:16:07;;;;;;;8.57;2.80;;;;;;;15.02;55.31;151061.59;5093847;28;20044;-74
2023/05/29 04:18:33;;;;;;;5.70;3.08;;;;;;;15.07;54.26;151071.91;5077663;28;20052;-74
2023/05/29 04:20:59;;;;;;;4.18;2.47;;;;;;;15.12;55.16;151086.06;5075880;28;20033;-75
2023/05/29 04:23:25;;;;;;;5.88;3.10;;;;;;;15.15;56.06;151093.75;5082946;28;20104;-74
2023/05/29 04:25:50;;;;;;;8.52;2.78;;;;;;;15.24;55.03;151114.38;5069804;28;20037;-74
2023/05/29 04:28:17;;;;;;;9.75;2.78;;;;;;;15.23;55.34;151111.78;5051744;28;20043;-74
2023/05/29 04:30:42;;;;;;;6.60;2.67;;;;;;;15.24;54.04;151114.38;5082870;28;20339;-76
2023/05/29 04:33:12;;;;;;;5.30;2.95;;;;;;;15.28;53.50;151124.66;5043102;28;20036;-74
2023/05/29 04:35:38;;;;;;;8.75;2.95;;;;;;;15.44;53.35;151164.56;5074760;28;20031;-76
2023/05/29 04:38:04;;;;;;;4.32;2.53;;;;;;;15.31;53.62;151132.38;5071878;28;20029;-81
2023/05/29 04:40:31;;;;;;;6.72;2.88;;;;;;;15.53;54.01;151189.03;5063261;28;20037;-80
2023/05/29 04:43:00;;;;;;;3.97;2.47;;;;;;;15.63;53.55;151212.16;5063382;28;20024;-80
2023/05/29 04:45:25;;;;;;;6.88;2.67;;;;;;;15.72;53.78;151235.38;5063188;28;20029;-74
2023/05/29 04:47:52;;;;;;;4.85;2.88;;;;;;;15.74;52.79;151240.50;5080788;28;20027;-77
2023/05/29 04:50:18;;;;;;;8.25;2.80;;;;;;;15.84;52.65;151266.28;5069835;28;20029;-77
2023/05/29 04:52:44;;;;;;;4.53;2.60;;;;;;;15.87;51.96;151274.00;5071005;28;20220;-73
2023/05/29 04:55:12;;;;;;;4.70;2.67;;;;;;;16.01;53.15;151308.78;5079288;28;20028;-73
2023/05/29 04:57:38;;;;;;;3.28;2.47;;;;;;;16.02;52.49;151311.34;5078619;28;20330;-74
2023/05/29 05:00:09;;;;;;;4.57;2.50;;;;;;;16.16;52.05;151346.13;5082129;28;20126;-74
2023/05/29 05:02:35;;;;;;;6.47;2.88;;;;;;;16.28;50.03;151375.75;5066253;28;20025;-74
2023/05/29 05:05:00;;;;;;;8.95;2.58;;;;;;;16.50;50.01;151431.16;5073126;28;20059;-74
2023/05/29 05:07:26;;;;;;;2.65;2.05;;;;;;;16.66;48.71;151469.75;5076933;28;20043;-74
2023/05/29 05:09:51;;;;;;;2.90;1.90;;;;;;;16.73;47.88;151487.78;5062422;28;20021;-75
2023/05/29 05:12:17;;;;;;;5.72;2.63;;;;;;;16.86;47.77;151521.31;5062476;28;20070;-75
2023/05/29 05:14:42;;;;;;;4.65;2.42;;;;;;;17.01;48.10;151558.69;5062470;28;20087;-76
2023/05/29 05:17:08;;;;;;;3.90;2.35;;;;;;;17.22;46.65;151610.28;5074073;28;20029;-77
2023/05/29 05:19:34;;;;;;;5.30;2.13;;;;;;;17.35;44.75;151643.75;5076213;28;20029;-77
2023/05/29 05:21:59;;;;;;;3.63;1.95;;;;;;;17.84;43.85;151764.94;5064324;28;20221;-77
2023/05/29 05:24:25;;;;;;;6.00;2.13;;;;;;;17.98;44.67;151799.81;5081331;28;20044;-77
2023/05/29 05:26:50;;;;;;;4.50;2.58;;;;;;;18.02;44.90;151811.41;5065271;28;20033;-75
2023/05/29 05:29:16;;;;;;;5.13;1.95;;;;;;;18.02;43.67;151811.41;5074654;28;20028;-76
2023/05/29 05:31:41;;;;;;;3.38;1.83;;;;;;;18.00;45.67;151806.28;5074989;28;20071;-78
2023/05/29 05:34:07;;;;;;;3.95;1.83;;;;;;;17.99;42.74;151803.69;5065286;28;20031;-76
2023/05/29 05:36:33;;;;;;;3.03;1.83;;;;;;;18.05;43.14;151819.13;5082636;28;20088;-74
2023/05/29 05:38:58;;;;;;;5.07;1.63;;;;;;;18.10;41.12;151832.03;5059862;28;20036;-73
2023/05/29 05:41:25;;;;;;;4.38;2.13;;;;;;;18.17;41.59;151847.50;5060104;28;20102;-74
2023/05/29 05:43:50;;;;;;;8.50;2.20;;;;;;;18.07;41.39;151823.00;5065669;28;20080;-73
2023/05/29 05:46:17;;;;;;;5.20;1.90;;;;;;;18.16;42.30;151846.22;5069630;28;20052;-73
2023/05/29 05:48:43;;;;;;;5.15;2.40;;;;;;;18.15;41.48;151842.38;5085783;28;20048;-74
2023/05/29 05:51:10;;;;;;;6.78;2.08;;;;;;;18.28;42.03;151875.88;5066074;28;20052;-75
2023/05/29 05:53:36;;;;;;;2.88;2.10;;;;;;;18.28;40.25;151877.19;5079223;28;20047;-74
2023/05/29 05:56:01;;;;;;;4.22;1.80;;;;;;;18.34;40.41;151891.38;5075443;28;20033;-74
2023/05/29 05:58:27;;;;;;;2.97;1.63;;;;;;;18.41;40.21;151909.44;5070829;28;20089;-76
2023/05/29 06:00:52;;;;;;;2.88;1.55;;;;;;;18.33;39.37;151888.78;5085160;28;20032;-75
2023/05/29 06:03:18;;;;;;;5.65;1.70;;;;;;;18.14;38.47;151841.03;5065243;28;20175;-78
2023/05/29 06:05:44;;;;;;;3.78;1.95;;;;;;;18.24;39.07;151865.56;5065810;28;20110;-76
2023/05/29 06:08:10;;;;;;;4.75;1.88;;;;;;;18.14;38.82;151841.03;5076620;28;20229;-77
2023/05/29 06:10:35;;;;;;;5.30;1.83;;;;;;;18.14;38.24;151839.78;5077799;28;20028;-76
2023/05/29 06:13:01;;;;;;;4.72;1.80;;;;;;;18.29;39.14;151878.47;5067305;28;20147;-75
2023/05/29 06:15:27;;;;;;;2.25;1.40;;;;;;;18.16;34.94;151846.22;5085282;28;20146;-75
2023/05/29 06:17:55;;;;;;;2.50;1.20;;;;;;;18.32;35.14;151884.94;5083923;28;20021;-73
2023/05/29 06:20:21;;;;;;;5.03;1.90;;;;;;;18.38;36.08;151901.66;5076537;28;20099;-73
2023/05/29 06:22:50;;;;;;;4.03;1.50;;;;;;;18.49;37.75;151927.50;5077193;28;20056;-72
2023/05/29 06:25:18;;;;;;;5.05;1.50;;;;;;;18.50;37.56;151931.38;5068265;28;20313;-72
2023/05/29 06:27:44;;;;;;;2.83;1.50;;;;;;;18.50;38.23;151930.03;5085174;28;20040;-71
2023/05/29 06:30:11;;;;;;;1.60;1.40;;;;;;;18.43;36.63;151913.31;5065478;28;20344;-72
2023/05/29 06:32:36;;;;;;;3.60;1.55;;;;;;;18.66;37.93;151970.06;5078494;28;20052;-72
2023/05/29 06:35:02;;;;;;;4.38;1.63;;;;;;;18.56;37.88;151945.56;5073635;28;20027;-72
2023/05/29 06:37:28;;;;;;;2.92;1.60;;;;;;;18.62;36.03;151961.03;5070054;28;20048;-73
2023/05/29 06:39:54;;;;;;;5.13;1.63;;;;;;;18.57;35.25;151948.09;5084414;28;20033;-73
2023/05/29 06:42:19;;;;;;;1.95;1.60;;;;;;;18.79;35.64;152003.59;5050629;28;20029;-73
2023/05/29 06:44:45;;;;;;;2.22;1.67;;;;;;;18.83;37.46;152013.91;5060439;28;20348;-72
2023/05/29 06:47:10;;;;;;;2.85;1.30;;;;;;;18.90;35.81;152030.75;5075600;28;20028;-73
2023/05/29 06:49:36;;;;;;;1.98;1.40;;;;;;;18.96;35.79;152046.22;5077553;28;20033;-72
2023/05/29 06:52:02;;;;;;;3.75;1.38;;;;;;;18.88;34.78;152025.56;5066013;28;20037;-72
2023/05/29 06:54:27;;;;;;;1.90;1.35;;;;;;;18.85;35.30;152019.06;5084104;28;20039;-73
2023/05/29 06:56:53;;;;;;;4.28;1.20;;;;;;;18.98;35.14;152051.38;5066658;28;20217;-73
2023/05/29 06:59:20;;;;;;;1.60;1.20;;;;;;;19.09;35.70;152079.75;5063947;28;20025;-74
2023/05/29 07:01:46;;;;;;;4.05;1.50;;;;;;;19.13;35.84;152090.09;5064298;28;20321;-72
2023/05/29 07:04:11;;;;;;;1.92;1.33;;;;;;;19.21;36.11;152108.16;5065248;28;20028;-71
2023/05/29 07:06:38;;;;;;;3.05;1.30;;;;;;;19.27;34.98;152123.66;5064337;28;20321;-71
2023/05/29 07:09:04;;;;;;;3.42;1.33;;;;;;;19.17;33.94;152097.81;5075246;28;20029;-71
2023/05/29 07:11:30;;;;;;;4.72;1.60;;;;;;;19.05;33.28;152069.41;5075411;28;20265;-72
2023/05/29 07:13:55;;;;;;;2.72;1.30;;;;;;;19.28;34.46;152126.22;5062458;28;20063;-72
2023/05/29 07:16:21;;;;;;;4.47;1.75;;;;;;;19.37;36.02;152148.16;5063224;28;20029;-72
2023/05/29 07:18:46;;;;;;;5.18;1.33;;;;;;;19.17;33.48;152099.13;5063531;28;20021;-73
2023/05/29 07:21:12;;;;;;;6.47;1.67;;;;;;;19.14;33.27;152091.41;5062100;28;20310;-72
2023/05/29 07:23:39;;;;;;;5.15;1.60;;;;;;;19.26;33.53;152121.06;5061370;28;20029;-73
2023/05/29 07:26:04;;;;;;;4.03;1.90;;;;;;;19.43;34.16;152163.66;5063553;28;20043;-72
2023/05/29 07:28:30;;;;;;;2.58;1.50;;;;;;;19.55;34.35;152194.59;5065846;28;20266;-73
2023/05/29 07:30:56;;;;;;;2.95;1.45;;;;;;;19.37;32.68;152149.47;5065855;28;20048;-73
2023/05/29 07:33:21;;;;;;;3.67;1.40;;;;;;;19.52;32.90;152185.59;5063227;28;20025;-73
2023/05/29 07:35:48;;;;;;;2.60;1.35;;;;;;;19.49;33.59;152180.41;5065488;28;20075;-72
2023/05/29 07:38:14;;;;;;;1.45;1.33;;;;;;;19.68;33.81;152226.88;5062897;28;20233;-72
2023/05/29 07:40:39;;;;;;;5.32;1.65;;;;;;;19.68;33.18;152226.88;5063244;28;20190;-72
2023/05/29 07:43:05;;;;;;;2.42;1.67;;;;;;;19.62;33.89;152212.72;5064159;28;20024;-72
2023/05/29 07:45:31;;;;;;;3.08;1.48;;;;;;;19.70;34.96;152230.78;5063919;28;20028;-71
2023/05/29 07:47:56;;;;;;;2.35;1.33;;;;;;;19.53;32.92;152189.47;5064870;28;20297;-72
2023/05/29 07:50:22;;;;;;;2.00;1.40;;;;;;;19.80;33.48;152256.66;5064599;28;20033;-71
2023/05/29 07:52:47;;;;;;;5.13;1.67;;;;;;;19.90;34.73;152281.19;5061834;28;20260;-72
2023/05/29 07:55:13;;;;;;;3.80;1.60;;;;;;;19.91;33.93;152283.75;5074714;28;20099;-73
2023/05/29 07:57:39;;;;;;;3.30;1.33;;;;;;;20.04;33.81;152316.00;5057777;28;20020;-72
2023/05/29 08:00:05;;;;;;;4.03;1.42;;;;;;;20.02;33.44;152312.16;5080655;28;20032;-72
2023/05/29 08:02:31;;;;;;;3.13;1.50;;;;;;;20.15;32.85;152344.44;5069840;28;20044;-73
2023/05/29 08:04:57;;;;;;;3.53;1.52;;;;;;;20.32;33.41;152387.03;5070618;28;20052;-71
2023/05/29 08:07:22;;;;;;;2.33;1.40;;;;;;;20.25;32.36;152368.97;5068062;28;20104;-72
2023/05/29 08:09:48;;;;;;;2.85;1.60;;;;;;;19.98;30.97;152301.81;5065811;28;20025;-73
2023/05/29 08:12:13;;;;;;;3.22;1.60;;;;;;;19.90;32.40;152281.19;5081262;28;20032;-73
2023/05/29 08:14:39;;;;;;;9.00;1.65;;;;;;;20.12;32.76;152336.69;5070330;28;20099;-73
2023/05/29 08:17:05;;;;;;;3.13;1.50;;;;;;;20.06;33.42;152322.47;5058466;28;20187;-72
2023/05/29 08:19:30;;;;;;;2.40;1.73;;;;;;;20.17;33.41;152350.91;5070714;28;20029;-72
2023/05/29 08:21:56;;;;;;;1.88;1.48;;;;;;;20.40;34.39;152406.44;5067567;28;20083;-72
2023/05/29 08:24:21;;;;;;;4.32;1.92;;;;;;;20.22;33.59;152362.50;5073434;28;20039;-72
2023/05/29 08:26:47;;;;;;;2.13;1.65;;;;;;;20.02;32.65;152312.16;5067295;28;20036;-72
2023/05/29 08:29:13;;;;;;;4.57;2.00;;;;;;;20.35;33.11;152394.78;5073320;28;20032;-72
2023/05/29 08:31:38;;;;;;;2.70;1.70;;;;;;;20.50;35.20;152433.53;5072555;28;20060;-71
2023/05/29 08:34:04;;;;;;;3.65;2.05;;;;;;;20.56;33.07;152447.75;5059876;28;20025;-70
2023/05/29 08:36:29;;;;;;;1.88;1.50;;;;;;;20.63;34.53;152464.56;5075514;28;20056;-70
2023/05/29 08:38:55;;;;;;;5.05;1.60;;;;;;;20.49;32.25;152431.00;5065356;28;20359;-69
2023/05/29 08:41:47;;;;;;;5.75;2.20;;;;;;;20.78;33.63;152502.03;5069169;28;20024;-70
2023/05/29 08:44:21;;;;;;;2.72;1.80;;;;;;;20.65;31.45;152469.69;5065072;28;20041;-69
2023/05/29 08:46:55;;;;;;;6.32;1.60;;;;;;;20.82;32.43;152513.72;5075750;28;20298;-72
2023/05/29 08:49:24;;;;;;;4.80;1.83;;;;;;;20.91;31.64;152534.34;5057053;28;20040;-71
2023/05/29 08:52:02;;;;;;;5.43;1.90;;;;;;;20.74;30.75;152493.03;5062272;28;20083;-73
2023/05/29 08:54:31;;;;;;;2.15;1.60;;;;;;;21.07;32.61;152575.72;5042600;28;20033;-69
2023/05/29 08:56:58;;;;;;;3.88;1.50;;;;;;;20.99;32.17;152556.34;5074880;28;20063;-69
2023/05/29 08:59:25;;;;;;;2.35;1.90;;;;;;;21.17;32.54;152601.53;5054935;28;20028;-71
2023/05/29 09:01:50;;;;;;;3.05;1.38;;;;;;;21.29;34.46;152631.28;5074852;28;20084;-68
2023/05/29 09:04:16;;;;;;;3.30;1.83;;;;;;;21.18;30.76;152602.88;5062005;28;20032;-69
2023/05/29 09:06:42;;;;;;;2.75;1.40;;;;;;;21.20;31.42;152608.00;5062630;28;20254;-68
2023/05/29 09:09:09;;;;;;;2.50;1.75;;;;;;;20.98;30.07;152552.47;5078571;28;20060;-67
2023/05/29 09:11:35;;;;;;;4.78;1.60;;;;;;;21.23;31.08;152615.75;5067741;28;20090;-69
2023/05/29 09:14:02;;;;;;;4.95;1.30;;;;;;;20.91;30.99;152535.66;5074004;28;20324;-67
2023/05/29 09:16:28;;;;;;;6.43;2.33;;;;;;;21.25;32.34;152619.63;5063760;28;20078;-68
2023/05/29 09:19:05;;;;;;;4.03;1.60;;;;;;;21.31;31.67;152635.16;5066151;28;20017;-67
2023/05/29 09:21:33;;;;;;;7.55;1.80;;;;;;;21.44;30.68;152668.75;5065993;28;20036;-67
2023/05/29 09:24:08;;;;;;;4.63;1.95;;;;;;;20.89;30.23;152529.19;5078369;28;20036;-66
2023/05/29 09:26:34;;;;;;;3.45;1.70;;;;;;;20.45;29.26;152419.34;5072921;28;20024;-66
2023/05/29 09:29:01;;;;;;;2.70;1.52;;;;;;;20.94;30.30;152542.13;5072784;28;20099;-68
2023/05/29 09:31:26;;;;;;;2.25;1.65;;;;;;;20.68;29.05;152478.81;5079609;28;20079;-69
2023/05/29 09:33:52;;;;;;;2.00;1.55;;;;;;;20.97;30.73;152551.16;5081285;28;20319;-69
2023/05/29 09:36:24;;;;;;;3.83;1.50;;;;;;;20.84;27.94;152518.84;5076996;28;20332;-67
2023/05/29 09:38:51;;;;;;;2.85;1.40;;;;;;;20.65;28.84;152469.69;5069943;28;20036;-69
2023/05/29 09:41:23;;;;;;;3.42;1.40;;;;;;;20.93;30.46;152539.53;5074226;28;20051;-66
2023/05/29 09:43:50;;;;;;;3.35;1.85;;;;;;;21.16;30.05;152599.00;5081487;28;20025;-66
2023/05/29 09:46:17;;;;;;;3.08;1.70;;;;;;;21.37;31.03;152650.66;5073482;28;20035;-67
2023/05/29 09:48:44;;;;;;;4.65;1.50;;;;;;;21.04;30.35;152567.97;5072060;28;20044;-68
2023/05/29 09:51:22;;;;;;;2.78;1.70;;;;;;;21.20;30.98;152609.28;5074278;28;20028;-73
2023/05/29 09:53:50;;;;;;;2.75;1.50;;;;;;;21.14;29.47;152593.78;5066699;28;20197;-67
2023/05/29 09:56:17;;;;;;;2.47;1.95;;;;;;;21.19;30.25;152606.72;5058655;28;20035;-68
2023/05/29 09:58:47;;;;;;;4.22;1.70;;;;;;;20.95;30.03;152546.00;5077019;28;20264;-68
2023/05/29 10:01:16;;;;;;;5.88;1.75;;;;;;;21.13;30.35;152589.91;5082046;28;20040;-66
2023/05/29 10:03:45;;;;;;;2.97;1.48;;;;;;;21.31;31.88;152635.16;5067755;28;20052;-67
2023/05/29 10:06:15;;;;;;;2.53;1.52;;;;;;;21.27;30.89;152624.81;5066099;28;20041;-65
2023/05/29 10:08:50;;;;;;;3.72;1.83;;;;;;;21.31;30.71;152636.44;5064966;28;20051;-64
2023/05/29 10:11:23;;;;;;;2.10;1.70;;;;;;;21.39;30.75;152655.81;5065079;28;20096;-66
2023/05/29 10:13:51;;;;;;;3.28;2.00;;;;;;;21.47;31.26;152676.50;5071428;28;20032;-67
2023/05/29 10:16:22;;;;;;;5.20;1.77;;;;;;;21.51;30.07;152686.91;5066034;28;20028;-66
2023/05/29 10:18:57;;;;;;;5.50;1.60;;;;;;;21.58;31.44;152703.72;5080544;28;20025;-66
2023/05/29 10:21:26;;;;;;;2.45;1.92;;;;;;;21.64;31.33;152717.94;5065048;28;20025;-66
2023/05/29 10:23:54;;;;;;;6.90;1.70;;;;;;;21.43;30.30;152666.16;5059738;28;20060;-67
2023/05/29 10:26:25;;;;;;;5.22;2.10;;;;;;;21.49;31.18;152681.69;5055083;28;20025;-69
2023/05/29 10:29:18;;;;;;;3.42;2.05;;;;;;;21.57;32.50;152699.84;5064032;28;20041;-68
2023/05/29 10:32:03;;;;;;;3.97;1.95;;;;;;;21.60;30.52;152707.59;5070204;28;20200;-67
2023/05/29 10:34:56;;;;;;;2.90;1.73;;;;;;;21.51;29.86;152685.56;5081311;28;20328;-68
2023/05/29 10:37:36;;;;;;;6.38;1.70;;;;;;;21.48;31.21;152679.09;5066642;28;20343;-69
2023/05/29 10:40:11;;;;;;;1.92;1.70;;;;;;;21.73;32.08;152741.16;5078218;28;20025;-68
2023/05/29 10:42:44;;;;;;;2.35;1.75;;;;;;;21.58;29.79;152702.38;5044697;28;20049;-69
2023/05/29 10:45:13;;;;;;;3.20;1.90;;;;;;;21.61;30.49;152710.19;5064539;28;20029;-67
2023/05/29 10:47:39;;;;;;;4.32;2.13;;;;;;;21.74;30.51;152742.50;5067030;28;20042;-68
2023/05/29 10:50:05;;;;;;;4.15;2.25;;;;;;;21.50;30.94;152682.97;5059370;28;20029;-66
2023/05/29 10:52:35;;;;;;;3.50;1.63;;;;;;;21.61;31.02;152710.19;5047439;28;20040;-67
2023/05/29 10:55:04;;;;;;;4.45;2.00;;;;;;;21.39;30.32;152655.81;5064419;28;20067;-67
2023/05/29 10:57:30;;;;;;;6.85;1.73;;;;;;;21.69;31.37;152730.81;5083512;28;20030;-68
2023/05/29 11:00:12;;;;;;;3.65;1.95;;;;;;;21.72;31.56;152739.91;5057161;28;20040;-65
2023/05/29 11:02:39;;;;;;;5.63;2.80;;;;;;;21.80;31.36;152759.28;5058921;28;20032;-66
2023/05/29 11:05:24;;;;;;;3.55;1.58;;;;;;;21.80;30.92;152759.28;5071624;28;20036;-66
2023/05/29 11:07:57;;;;;;;2.95;1.73;;;;;;;21.68;29.60;152728.28;5063803;28;20201;-67
2023/05/29 11:10:43;;;;;;;6.75;2.17;;;;;;;21.53;29.02;152692.09;5065518;28;20025;-66
2023/05/29 11:13:09;;;;;;;7.15;3.00;;;;;;;21.57;31.59;152701.13;5083577;28;20142;-66
2023/05/29 11:15:37;;;;;;;4.60;2.38;;;;;;;21.73;32.06;152741.16;5062452;28;20017;-66
2023/05/29 11:18:07;;;;;;;10.40;6.13;;;;;;;21.59;30.16;152706.31;5063230;28;20039;-66
2023/05/29 11:20:41;;;;;;;8.40;3.45;;;;;;;21.63;29.20;152716.59;5065523;28;20027;-68
2023/05/29 11:23:08;;;;;;;3.20;1.88;;;;;;;21.66;30.88;152724.41;5066672;28;20135;-67
2023/05/29 11:25:37;;;;;;;8.10;6.53;;;;;;;21.81;29.71;152761.88;5064818;28;20053;-69